Time;durP1;ratioP1;P1;durP2;ratioP2;P2;SDS_P1;SDS_P2;PMS_P1;PMS_P2;Temp;Humidity;BMP_temperature;BMP_pressure;BME280_temperature;BME280_humidity;BME280_pressure;Samples;Min_cycle;Max_cycle;Signal;HPM_P1;HPM_P2
2021/10/11 00:00:37;;;;;;;21.73;14.70;;;;;;;;;;4959396;29;20051;-80
2021/10/11 00:03:03;;;;;;;24.65;13.68;;;;;;;;;;4959080;29;20030;-80
2021/10/11 00:05:29;;;;;;;20.02;13.77;;;;;;;;;;4958827;29;20031;-79
2021/10/11 00:07:55;;;;;;;26.48;14.77;;;;;;;;;;4941791;29;20027;-79
2021/10/11 00:10:21;;;;;;;23.73;15.00;;;;;;;;;;4959148;29;20031;-79
2021/10/11 00:12:48;;;;;;;21.90;15.07;;;;;;;;;;4964106;29;20034;-79
2021/10/11 00:15:14;;;;;;;26.42;15.02;;;;;;;;;;4965030;29;20094;-79
2021/10/11 00:17:42;;;;;;;24.55;15.27;;;;;;;;;;4967222;29;20051;-79
2021/10/11 00:20:08;;;;;;;21.42;14.15;;;;;;;;;;4965521;29;20027;-79
2021/10/11 00:22:34;;;;;;;24.90;14.73;;;;;;;;;;4965914;29;20106;-80
2021/10/11 00:25:00;;;;;;;21.83;14.70;;;;;;;;;;4943809;29;20055;-80
2021/10/11 00:27:26;;;;;;;20.40;13.77;;;;;;;;;;4947992;29;20031;-79
2021/10/11 00:29:52;;;;;;;21.52;13.18;;;;;;;;;;4940284;29;20024;-79
2021/10/11 00:32:18;;;;;;;23.08;12.90;;;;;;;;;;4941041;29;20118;-80
2021/10/11 00:34:44;;;;;;;18.02;12.95;;;;;;;;;;4957784;29;20034;-79
2021/10/11 00:37:10;;;;;;;21.08;13.43;;;;;;;;;;4940600;29;20444;-79
2021/10/11 00:39:36;;;;;;;21.13;13.57;;;;;;;;;;4958338;29;20034;-80
2021/10/11 00:42:02;;;;;;;19.27;13.52;;;;;;;;;;4958647;29;20035;-80
2021/10/11 00:44:28;;;;;;;21.73;13.77;;;;;;;;;;4957728;29;20561;-80
2021/10/11 00:46:54;;;;;;;23.23;14.55;;;;;;;;;;4958577;29;20032;-80
2021/10/11 00:49:20;;;;;;;29.00;15.88;;;;;;;;;;4957363;29;20044;-80
2021/10/11 00:51:46;;;;;;;24.17;16.05;;;;;;;;;;4940345;29;20039;-80
2021/10/11 00:54:13;;;;;;;24.38;15.75;;;;;;;;;;4957191;29;20493;-80
2021/10/11 00:56:39;;;;;;;30.42;16.35;;;;;;;;;;4948916;29;20520;-80
2021/10/11 00:59:05;;;;;;;26.17;15.90;;;;;;;;;;4946464;29;20035;-81
2021/10/11 01:01:31;;;;;;;25.30;15.57;;;;;;;;;;4958226;29;20040;-81
2021/10/11 01:03:58;;;;;;;27.67;15.18;;;;;;;;;;4959883;29;20032;-81
2021/10/11 01:06:25;;;;;;;23.27;14.63;;;;;;;;;;4960372;29;20023;-81
2021/10/11 01:08:51;;;;;;;24.35;15.32;;;;;;;;;;4941924;29;20055;-81
2021/10/11 01:11:17;;;;;;;24.17;16.40;;;;;;;;;;4960370;29;20309;-81
2021/10/11 01:13:43;;;;;;;23.48;16.23;;;;;;;;;;4959253;29;20046;-80
2021/10/11 01:16:09;;;;;;;26.90;15.20;;;;;;;;;;4957367;29;20035;-79
2021/10/11 01:18:35;;;;;;;25.65;15.93;;;;;;;;;;4938189;29;20038;-80
2021/10/11 01:21:01;;;;;;;22.48;14.60;;;;;;;;;;4956015;29;20046;-80
2021/10/11 01:23:27;;;;;;;24.70;15.55;;;;;;;;;;4955946;29;20058;-80
2021/10/11 01:25:53;;;;;;;23.10;15.63;;;;;;;;;;4954582;29;20062;-80
2021/10/11 01:28:20;;;;;;;24.98;16.17;;;;;;;;;;4940349;29;20023;-80
2021/10/11 01:30:46;;;;;;;28.35;15.95;;;;;;;;;;4956069;29;20492;-80
2021/10/11 01:33:12;;;;;;;24.90;16.85;;;;;;;;;;4956570;29;20505;-80
2021/10/11 01:35:38;;;;;;;30.73;17.50;;;;;;;;;;4939237;29;20039;-79
2021/10/11 01:38:05;;;;;;;23.48;15.63;;;;;;;;;;4957943;28;20493;-80
2021/10/11 01:40:31;;;;;;;29.27;15.60;;;;;;;;;;4958917;29;20062;-79
2021/10/11 01:42:57;;;;;;;21.20;15.40;;;;;;;;;;4960153;29;20038;-80
2021/10/11 01:45:23;;;;;;;26.45;15.13;;;;;;;;;;4960161;29;20039;-79
2021/10/11 01:47:49;;;;;;;23.10;15.27;;;;;;;;;;4961286;29;20023;-80
2021/10/11 01:50:15;;;;;;;21.98;14.90;;;;;;;;;;4959287;29;20054;-80
2021/10/11 01:52:41;;;;;;;21.85;14.90;;;;;;;;;;4943035;29;20127;-79
2021/10/11 01:55:07;;;;;;;27.58;15.23;;;;;;;;;;4960525;29;20059;-79
2021/10/11 01:57:34;;;;;;;23.42;15.20;;;;;;;;;;4954999;29;20035;-80
2021/10/11 02:00:00;;;;;;;17.55;13.25;;;;;;;;;;4959956;29;20519;-80
2021/10/11 02:02:27;;;;;;;21.58;14.50;;;;;;;;;;4959814;29;20031;-80
2021/10/11 02:04:53;;;;;;;22.48;14.27;;;;;;;;;;4960110;29;20159;-80
2021/10/11 02:07:19;;;;;;;19.92;13.65;;;;;;;;;;4960079;29;20508;-80
2021/10/11 02:09:45;;;;;;;22.15;13.80;;;;;;;;;;4942964;29;20035;-80
2021/10/11 02:12:11;;;;;;;22.13;14.98;;;;;;;;;;4959200;29;20031;-80
2021/10/11 02:14:37;;;;;;;23.08;15.43;;;;;;;;;;4958595;29;20038;-80
2021/10/11 02:17:03;;;;;;;25.55;16.83;;;;;;;;;;4960020;29;20612;-80
2021/10/11 02:19:29;;;;;;;24.42;15.07;;;;;;;;;;4959327;29;20035;-80
2021/10/11 02:21:55;;;;;;;23.42;14.68;;;;;;;;;;4958960;29;20031;-80
2021/10/11 02:24:21;;;;;;;25.90;15.43;;;;;;;;;;4959577;29;20070;-80
2021/10/11 02:26:47;;;;;;;20.95;14.30;;;;;;;;;;4949336;29;20040;-80
2021/10/11 02:29:14;;;;;;;23.75;15.00;;;;;;;;;;4956509;29;20122;-80
2021/10/11 02:31:40;;;;;;;24.17;14.20;;;;;;;;;;4958790;29;20038;-80
2021/10/11 02:34:06;;;;;;;25.08;14.02;;;;;;;;;;4959214;29;20023;-80
2021/10/11 02:36:31;;;;;;;21.27;13.30;;;;;;;;;;4965811;29;20034;-79
2021/10/11 02:38:57;;;;;;;22.60;14.10;;;;;;;;;;4952446;29;20031;-79
2021/10/11 02:41:23;;;;;;;21.02;13.55;;;;;;;;;;4951414;29;20031;-79
2021/10/11 02:43:49;;;;;;;20.02;14.25;;;;;;;;;;4967240;29;20047;-80
2021/10/11 02:46:16;;;;;;;26.42;15.30;;;;;;;;;;4959196;29;20094;-80
2021/10/11 02:48:42;;;;;;;23.42;15.20;;;;;;;;;;4957699;28;20508;-80
2021/10/11 02:51:08;;;;;;;30.65;16.27;;;;;;;;;;4957579;29;20532;-80
2021/10/11 02:53:34;;;;;;;24.95;16.13;;;;;;;;;;4941141;29;20491;-80
2021/10/11 02:56:00;;;;;;;23.85;15.63;;;;;;;;;;4955293;29;20099;-80
2021/10/11 02:58:26;;;;;;;22.40;13.85;;;;;;;;;;4922502;29;20637;-80
2021/10/11 03:00:52;;;;;;;23.88;15.05;;;7.10;99.90;;;;;;4922100;29;20028;-80
2021/10/11 03:03:17;;;;;;;21.42;14.63;;;3.60;99.90;;;;;;4947585;29;20085;-80
2021/10/11 03:05:43;;;;;;;22.42;13.90;;;2.90;99.90;;;;;;4941643;29;20042;-80
2021/10/11 03:08:08;;;;;;;25.13;14.55;;;2.80;99.90;;;;;;4958198;29;20082;-80
2021/10/11 03:10:34;;;;;;;19.75;14.48;;;2.70;99.90;;;;;;4941198;29;20031;-80
2021/10/11 03:13:00;;;;;;;22.90;15.05;;;2.70;99.90;;;;;;4959192;29;20037;-80
2021/10/11 03:15:25;;;;;;;23.30;14.95;;;2.70;99.90;;;;;;4941301;29;20054;-80
2021/10/11 03:17:51;;;;;;;22.33;13.60;;;2.70;99.90;;;;;;4940820;29;20136;-80
2021/10/11 03:20:16;;;;;;;20.40;13.68;;;2.60;99.90;;;;;;4958328;29;20047;-80
2021/10/11 03:22:42;;;;;;;21.90;13.63;;;2.60;99.90;;;;;;4940699;29;20102;-80
2021/10/11 03:25:08;;;;;;;20.38;14.75;;;2.50;99.90;;;;;;4925284;29;20027;-80
2021/10/11 03:27:33;;;;;;;25.00;14.60;;;2.50;99.90;;;;;;4942658;29;20032;-80
2021/10/11 03:29:59;;;;;;;24.70;13.77;;;2.50;99.90;;;;;;4937363;29;20086;-80
2021/10/11 03:32:25;;;;;;;22.30;13.60;;;2.40;99.90;;;;;;4956989;29;20065;-80
2021/10/11 03:34:50;;;;;;;23.92;15.23;;;2.30;99.90;;;;;;4956950;29;20039;-80
2021/10/11 03:37:17;;;;;;;23.05;14.98;;;2.40;99.90;;;;;;4957488;29;20046;-80
2021/10/11 03:39:43;;;;;;;21.98;13.80;;;2.40;99.90;;;;;;4957161;29;20023;-80
2021/10/11 03:42:08;;;;;;;21.95;14.27;;;2.40;99.90;;;;;;4957732;29;20437;-80
2021/10/11 03:44:35;;;;;;;26.45;15.13;;;2.30;99.90;;;;;;4957663;29;20062;-80
2021/10/11 03:47:00;;;;;;;23.92;15.05;;;2.30;99.90;;;;;;4957452;29;20027;-80
2021/10/11 03:49:26;;;;;;;19.90;13.85;;;2.20;99.90;;;;;;4957450;29;20071;-80
2021/10/11 03:51:51;;;;;;;27.42;15.13;;;2.20;99.90;;;;;;4956774;29;20035;-80
2021/10/11 03:54:17;;;;;;;21.55;13.40;;;2.10;99.90;;;;;;4940906;29;20035;-80
2021/10/11 03:56:44;;;;;;;20.23;13.90;;;2.20;99.90;;;;;;4951703;29;20031;-80
2021/10/11 03:59:11;;;;;;;23.67;12.90;;;2.20;99.90;;;;;;4941055;29;20031;-80
2021/10/11 04:01:36;;;;;;;21.45;13.32;;;2.10;99.90;;;;;;4956548;28;20027;-80
2021/10/11 04:04:02;;;;;;;20.48;14.13;;;2.00;99.90;;;;;;4957707;29;20031;-80
2021/10/11 04:06:28;;;;;;;25.13;15.40;;;2.20;99.90;;;;;;4962896;29;20031;-80
2021/10/11 04:08:55;;;;;;;24.27;14.10;;;2.00;99.90;;;;;;4965673;29;20035;-79
2021/10/11 04:13:46;;;;;;;19.35;12.85;;;2.00;99.90;;;;;;4957627;29;20027;-80
2021/10/11 04:16:12;;;;;;;21.35;14.05;;;1.90;99.90;;;;;;4939668;29;20504;-80
2021/10/11 04:18:38;;;;;;;24.75;13.90;;;1.90;99.90;;;;;;4957288;29;20076;-79
2021/10/11 04:21:04;;;;;;;21.70;14.73;;;1.90;99.90;;;;;;4957051;29;20439;-80
2021/10/11 04:23:30;;;;;;;21.83;13.48;;;2.00;99.90;;;;;;4957068;29;20027;-80
2021/10/11 04:25:56;;;;;;;23.80;15.00;;;2.00;99.90;;;;;;4954815;29;20027;-79
2021/10/11 04:28:23;;;;;;;26.08;14.75;;;1.90;99.90;;;;;;4940984;29;20074;-79
2021/10/11 04:30:49;;;;;;;22.30;14.52;;;2.00;99.90;;;;;;4956884;29;20500;-80
2021/10/11 04:33:15;;;;;;;20.60;13.35;;;2.00;99.90;;;;;;4957605;29;20063;-80
2021/10/11 04:35:42;;;;;;;20.17;13.85;;;1.80;99.90;;;;;;4959223;29;20504;-79
2021/10/11 04:38:08;;;;;;;21.35;13.90;;;1.70;99.90;;;;;;4966528;29;20030;-79
2021/10/11 04:40:34;;;;;;;20.55;13.43;;;1.70;99.90;;;;;;4960624;29;20401;-78
2021/10/11 04:43:00;;;;;;;18.92;13.05;;;1.80;99.90;;;;;;4958227;29;20027;-78
2021/10/11 04:45:29;;;;;;;24.63;14.68;;;1.50;99.90;;;;;;4955838;29;20028;-78
2021/10/11 04:48:07;;;;;;;21.50;12.93;;;1.50;99.90;;;;;;4939125;29;20110;-79
2021/10/11 04:50:33;;;;;;;19.45;13.15;;;1.60;99.90;;;;;;4917776;29;20501;-79
2021/10/11 04:53:02;;;;;;;20.35;13.65;;;1.50;99.90;;;;;;4917619;29;20055;-78
2021/10/11 04:55:28;;;;;;;24.90;15.10;;;1.40;99.90;;;;;;4917836;29;20032;-79
2021/10/11 04:57:56;;;;;;;24.77;15.70;;;1.90;99.90;;;;;;4936040;29;20075;-78
2021/10/11 05:00:22;;;;;;;24.25;15.85;;;1.50;99.90;;;;;;4954463;29;20055;-79
2021/10/11 05:02:48;;;;;;;24.05;16.15;;;1.50;99.90;;;;;;4955989;29;20028;-79
2021/10/11 05:05:13;;;;;;;27.67;16.67;;;1.50;99.90;;;;;;4955664;29;20042;-79
2021/10/11 05:07:39;;;;;;;25.08;16.05;;;1.40;99.90;;;;;;4955467;29;20036;-79
2021/10/11 05:10:05;;;;;;;27.85;16.50;;;1.60;99.90;;;;;;4955218;29;20106;-78
2021/10/11 05:12:31;;;;;;;27.02;16.13;;;1.50;99.90;;;;;;4956728;28;20040;-81
2021/10/11 05:14:57;;;;;;;29.27;17.75;;;1.50;99.90;;;;;;4959703;29;20042;-78
2021/10/11 05:17:22;;;;;;;26.55;16.70;;;1.20;99.90;;;;;;4959302;29;20038;-78
2021/10/11 05:19:48;;;;;;;27.00;17.05;;;1.60;99.90;;;;;;4958312;29;20114;-78
2021/10/11 05:22:13;;;;;;;24.10;16.58;;;1.60;99.90;;;;;;4959106;29;20062;-79
2021/10/11 05:24:41;;;;;;;24.95;16.42;;;1.50;99.90;;;;;;4959025;29;20031;-78
2021/10/11 05:27:07;;;;;;;25.30;16.80;;;1.50;99.90;;;;;;4946673;29;20449;-79
2021/10/11 05:29:33;;;;;;;25.00;16.67;;;1.40;99.90;;;;;;4954102;29;20551;-78
2021/10/11 05:31:59;;;;;;;26.00;16.77;;;1.40;99.90;;;;;;4959414;29;20027;-78
2021/10/11 05:34:26;;;;;;;30.17;17.15;;;1.40;99.90;;;;;;4959006;29;20658;-79
2021/10/11 05:36:51;;;;;;;29.40;17.73;;;1.90;99.90;;;;;;4958961;29;20243;-78
2021/10/11 05:39:18;;;;;;;27.40;16.13;;;1.50;99.90;;;;;;4958428;29;20105;-78
2021/10/11 05:41:44;;;;;;;27.38;16.70;;;1.70;99.90;;;;;;4959103;29;20489;-79
2021/10/11 05:44:10;;;;;;;25.13;16.65;;;1.50;99.90;;;;;;4942276;29;20038;-79
2021/10/11 05:46:37;;;;;;;31.13;17.23;;;1.70;99.90;;;;;;4959399;29;20035;-78
2021/10/11 05:49:03;;;;;;;27.83;17.90;;;1.90;99.90;;;;;;4959580;29;20023;-78
2021/10/11 05:51:29;;;;;;;26.08;17.00;;;1.90;99.90;;;;;;4941811;29;20046;-79
2021/10/11 05:53:55;;;;;;;29.02;17.55;;;1.80;99.90;;;;;;4959294;29;20043;-78
2021/10/11 05:56:21;;;;;;;28.55;17.25;;;1.80;99.90;;;;;;4957123;29;20389;-79
2021/10/11 05:58:47;;;;;;;29.45;17.48;;;1.50;99.90;;;;;;4959434;29;20035;-78
2021/10/11 06:01:12;;;;;;;24.05;15.48;;;1.60;99.90;;;;;;4959418;29;20036;-78
2021/10/11 06:03:38;;;;;;;27.65;17.80;;;1.60;99.90;;;;;;4959236;29;20401;-79
2021/10/11 06:06:03;;;;;;;29.20;18.60;;;1.60;99.90;;;;;;4959329;29;20031;-79
2021/10/11 06:08:29;;;;;;;32.63;19.90;;;1.80;99.90;;;;;;4959272;29;20487;-79
2021/10/11 06:10:55;;;;;;;31.80;20.80;;;1.70;99.90;;;;;;4958687;29;20093;-78
2021/10/11 06:13:23;;;;;;;35.47;22.35;;;1.80;99.90;;;;;;4959327;29;20043;-79
2021/10/11 06:15:49;;;;;;;34.80;21.38;;;2.20;99.90;;;;;;4958923;29;20612;-79
2021/10/11 06:18:15;;;;;;;39.58;20.90;;;2.30;99.90;;;;;;4959423;29;20054;-79
2021/10/11 06:20:41;;;;;;;36.80;20.83;;;2.40;99.90;;;;;;4958974;29;20055;-78
2021/10/11 06:23:07;;;;;;;36.08;22.88;;;2.40;99.90;;;;;;4959057;28;20122;-78
2021/10/11 06:25:32;;;;;;;37.50;21.13;;;2.50;99.90;;;;;;4959437;29;20481;-79
2021/10/11 06:27:58;;;;;;;33.97;21.42;;;2.50;99.90;;;;;;4941355;29;20035;-79
2021/10/11 06:30:24;;;;;;;36.55;22.63;;;2.70;99.90;;;;;;4960179;29;20650;-79
2021/10/11 06:32:49;;;;;;;34.70;22.52;;;2.70;99.90;;;;;;4960857;29;20031;-79
2021/10/11 06:35:15;;;;;;;41.25;25.08;;;4.00;99.90;;;;;;4943880;29;20031;-79
2021/10/11 06:37:41;;;;;;;38.85;23.58;;;2.80;99.90;;;;;;4960601;29;20090;-79
2021/10/11 06:40:08;;;;;;;32.40;21.65;;;2.90;99.90;;;;;;4958220;29;20042;-78
2021/10/11 06:42:33;;;;;;;34.72;21.50;;;3.00;99.90;;;;;;4958116;29;20259;-79
2021/10/11 06:44:59;;;;;;;37.92;21.70;;;3.20;99.90;;;;;;4959022;29;20946;-81
2021/10/11 06:47:25;;;;;;;32.10;20.08;;;3.30;99.90;;;;;;4940967;29;20067;-79
2021/10/11 06:49:50;;;;;;;34.53;21.42;;;3.40;99.90;;;;;;4940705;29;20094;-78
2021/10/11 06:52:16;;;;;;;31.83;20.23;;;3.60;99.90;;;;;;4941053;29;20027;-79
2021/10/11 06:54:42;;;;;;;28.42;18.48;;;3.70;99.90;;;;;;4958342;29;20031;-81
2021/10/11 06:57:08;;;;;;;28.70;18.27;;;4.10;99.90;;;;;;4928543;29;20488;-81
2021/10/11 06:59:35;;;;;;;24.13;17.90;;;3.90;99.90;;;;;;4934099;29;20429;-80
2021/10/11 07:02:01;;;;;;;26.83;18.08;;;4.00;99.90;;;;;;4958135;29;20514;-79
2021/10/11 07:04:27;;;;;;;25.95;16.73;;;3.90;99.90;;;;;;4957898;29;20485;-80
2021/10/11 07:06:53;;;;;;;26.27;18.17;;;;;;;;;;4941445;29;20031;-80
2021/10/11 07:09:19;;;;;;;24.60;16.92;;;;;;;;;;4941307;29;20039;-79
2021/10/11 07:11:48;;;;;;;24.15;18.05;;;;;;;;;;4960563;29;20038;-79
2021/10/11 07:14:15;;;;;;;32.33;17.80;;;;;;;;;;4961097;29;20461;-80
2021/10/11 07:16:41;;;;;;;24.27;15.98;;;;;;;;;;4972501;23;20123;-83
2021/10/11 07:19:11;;;;;;;23.35;16.73;;;;;;;;;;4942169;29;20102;-82
2021/10/11 07:21:37;;;;;;;24.25;17.65;;;;;;;;;;4943022;29;20042;-84
2021/10/11 07:24:03;;;;;;;26.15;18.08;;;;;;;;;;4942014;29;20063;-83
2021/10/11 07:26:29;;;;;;;24.42;16.75;;;;;;;;;;4927459;29;20138;-83
2021/10/11 07:28:55;;;;;;;22.45;16.17;;;;;;;;;;4942678;29;20031;-83
2021/10/11 07:31:21;;;;;;;22.25;15.45;;;;;;;;;;4928508;29;20381;-83
2021/10/11 07:33:47;;;;;;;21.33;15.35;;;;;;;;;;4954662;29;20034;-83
2021/10/11 07:36:13;;;;;;;21.98;14.57;;;;;;;;;;4927836;29;20141;-83
2021/10/11 07:38:39;;;;;;;18.92;13.18;;;;;;;;;;4958277;29;20027;-83
2021/10/11 07:41:05;;;;;;;20.75;12.73;;;;;;;;;;4923786;29;20042;-83
2021/10/11 07:43:31;;;;;;;18.38;11.98;;;;;;;;;;4908309;29;20050;-84
2021/10/11 07:46:03;;;;;;;19.08;12.45;;;;;;;;;;4923613;29;20047;-83
2021/10/11 07:48:29;;;;;;;13.98;11.27;;;;;;;;;;4927728;29;20039;-83
2021/10/11 07:50:55;;;;;;;22.23;14.02;;;;;;;;;;4937934;29;20035;-84
2021/10/11 07:53:21;;;;;;;15.27;10.82;;;;;;;;;;4923851;29;20031;-84
2021/10/11 07:55:47;;;;;;;17.23;11.80;;;;;;;;;;4923795;29;20039;-84
2021/10/11 07:58:13;;;;;;;18.83;11.85;;;;;;;;;;4938654;29;20031;-84
2021/10/11 08:00:39;;;;;;;22.83;12.02;;;;;;;;;;4942097;29;20443;-84
2021/10/11 08:03:05;;;;;;;16.15;12.10;;;;;;;;;;4925828;29;20031;-83
2021/10/11 08:05:31;;;;;;;20.13;12.43;;;;;;;;;;4906982;29;20056;-84
2021/10/11 08:07:57;;;;;;;19.55;10.32;;;;;;;;;;4922863;29;20019;-84
2021/10/11 08:10:23;;;;;;;16.40;10.82;;;;;;;;;;4936482;29;20492;-83
2021/10/11 08:12:49;;;;;;;18.23;13.10;;;;;;;;;;4925766;29;20050;-83
2021/10/11 08:15:17;;;;;;;16.30;11.30;;;;;;;;;;4924154;29;20036;-83
2021/10/11 08:17:43;;;;;;;17.13;10.82;;;;;;;;;;4926557;29;20114;-84
2021/10/11 08:20:10;;;;;;;15.25;11.32;;;;;;;;;;4923766;29;20028;-83
2021/10/11 08:22:36;;;;;;;14.82;10.57;;;;;;;;;;4910918;29;20044;-84
2021/10/11 08:25:03;;;;;;;17.83;10.93;;;;;;;;;;4923727;29;20031;-84
2021/10/11 08:27:29;;;;;;;15.57;10.77;;;;;;;;;;4923229;29;20038;-84
2021/10/11 08:29:55;;;;;;;14.95;9.38;;;;;;;;;;4923965;29;20044;-84
2021/10/11 08:32:22;;;;;;;13.52;9.38;;;;;;;;;;4924815;29;20104;-84
2021/10/11 08:34:48;;;;;;;15.60;10.43;;;;;;;;;;4933128;29;20035;-84
2021/10/11 08:37:14;;;;;;;17.33;9.23;;;;;;;;;;4928132;29;20031;-84
2021/10/11 08:39:41;;;;;;;14.07;9.77;;;;;;;;;;4922868;29;20460;-84
2021/10/11 08:42:07;;;;;;;14.77;10.18;;;;;;;;;;4907275;29;20481;-84
2021/10/11 08:44:33;;;;;;;15.32;9.40;;;;;;;;;;4907610;29;20027;-84
2021/10/11 08:46:59;;;;;;;12.50;9.43;;;;;;;;;;4940930;29;20393;-84
2021/10/11 08:49:26;;;;;;;14.73;10.00;;;;;;;;;;4941632;29;20408;-84
2021/10/11 08:51:52;;;;;;;16.55;9.75;;;;;;;;;;4952260;29;20028;-84
2021/10/11 08:54:18;;;;;;;15.00;9.75;;;;;;;;;;4936806;29;20023;-84
2021/10/11 08:56:44;;;;;;;17.70;11.00;;;;;;;;;;4945471;29;20027;-84
2021/10/11 08:59:12;;;;;;;14.63;9.80;;;;;;;;;;4929463;29;20045;-84
2021/10/11 09:01:38;;;;;;;16.30;10.70;;;;;;;;;;4962484;29;20027;-84
2021/10/11 09:04:19;;;;;;;16.38;10.05;;;;;;;;;;4937621;29;20034;-84
2021/10/11 09:07:05;;;;;;;14.15;9.52;;;;;;;;;;4910289;29;20032;-84
2021/10/11 09:09:31;;;;;;;18.58;10.93;;;;;;;;;;4953801;29;20037;-84
2021/10/11 09:11:57;;;;;;;37.38;13.13;;;;;;;;;;4945563;29;20126;-84
2021/10/11 09:14:24;;;;;;;25.35;11.57;;;;;;;;;;4923015;29;20468;-84
2021/10/11 09:17:01;;;;;;;30.08;12.02;;;;;;;;;;4926842;29;20118;-84
2021/10/11 09:19:57;;;;;;;25.38;10.90;;;;;;;;;;4917074;29;20039;-86
2021/10/11 09:22:34;;;;;;;14.48;9.60;;;;;;;;;;4911481;29;20488;-84
2021/10/11 09:25:00;;;;;;;13.32;9.18;;;;;;;;;;4927196;29;20115;-85
2021/10/11 09:27:26;;;;;;;14.02;8.95;;;;;;;;;;4944027;29;20054;-84
2021/10/11 09:29:52;;;;;;;15.23;10.48;;;;;;;;;;4944667;29;20031;-85
2021/10/11 09:32:18;;;;;;;14.90;10.55;;;;;;;;;;4942351;29;20093;-85
2021/10/11 09:34:44;;;;;;;14.98;10.52;;;;;;;;;;4943650;29;20032;-85
2021/10/11 09:37:14;;;;;;;18.00;11.18;;;;;;;;;;4943734;29;20051;-84
2021/10/11 09:39:41;;;;;;;16.05;11.52;;;;;;;;;;4918776;29;20027;-84
2021/10/11 09:42:09;;;;;;;14.93;10.90;;;;;;;;;;4945787;29;20019;-84
2021/10/11 09:44:35;;;;;;;16.33;11.68;;;;;;;;;;4917524;29;20078;-84
2021/10/11 09:47:08;;;;;;;17.33;11.95;;;;;;;;;;4943061;29;20048;-84
2021/10/11 09:49:35;;;;;;;21.17;12.52;;;;;;;;;;4948348;29;20024;-84
2021/10/11 09:52:01;;;;;;;15.68;11.75;;;;;;;;;;4961233;29;20027;-84
2021/10/11 09:54:27;;;;;;;16.30;11.73;;;;;;;;;;4919436;29;20047;-85
2021/10/11 09:56:53;;;;;;;13.60;10.80;;;;;;;;;;4961140;29;20503;-84
2021/10/11 09:59:19;;;;;;;19.40;10.98;;;;;;;;;;4944047;29;20110;-85
2021/10/11 10:01:47;;;;;;;19.55;11.63;;;;;;;;;;4927219;29;20032;-84
2021/10/11 10:04:18;;;;;;;18.55;10.55;;;;;;;;;;4944892;29;20032;-84
2021/10/11 10:06:46;;;;;;;18.02;11.52;;;;;;;;;;4947815;29;20083;-84
2021/10/11 10:09:13;;;;;;;14.90;11.40;;;;;;;;;;4934459;29;20079;-85
2021/10/11 10:11:39;;;;;;;14.93;10.43;;;;;;;;;;4954949;29;20050;-85
2021/10/11 10:14:06;;;;;;;17.92;11.32;;;;;;;;;;4942355;29;20050;-85
2021/10/11 10:16:34;;;;;;;18.98;12.10;;;;;;;;;;4929204;29;20038;-84
2021/10/11 10:19:09;;;;;;;19.30;11.95;;;;;;;;;;4908924;29;20042;-85
2021/10/11 10:21:39;;;;;;;18.40;11.70;;;;;;;;;;4941195;29;20019;-85
2021/10/11 10:24:05;;;;;;;16.42;11.63;;;;;;;;;;4924290;29;20023;-85
2021/10/11 10:26:35;;;;;;;17.80;11.95;;;;;;;;;;4923634;29;20035;-85
2021/10/11 10:29:20;;;;;;;17.50;11.70;;;;;;;;;;4922216;29;20552;-85
2021/10/11 10:31:46;;;;;;;15.68;10.60;;;;;;;;;;4939140;29;20035;-85
2021/10/11 10:34:19;;;;;;;15.15;10.60;;;;;;;;;;4925545;29;20034;-84
2021/10/11 10:36:46;;;;;;;14.75;10.57;;;;;;;;;;4921769;29;20024;-85
2021/10/11 10:39:13;;;;;;;13.40;10.85;;;;;;;;;;4928071;29;20023;-85
2021/10/11 10:41:43;;;;;;;14.80;11.52;;;;;;;;;;4943874;29;20070;-85
2021/10/11 10:44:16;;;;;;;20.30;11.88;;;;;;;;;;4946753;29;20086;-85
2021/10/11 10:46:49;;;;;;;16.08;10.88;;;;;;;;;;4933051;29;20031;-85
2021/10/11 10:49:25;;;;;;;18.85;11.52;;;;;;;;;;4940809;29;20031;-85
2021/10/11 10:51:51;;;;;;;17.65;11.88;;;;;;;;;;4960257;29;20027;-86
2021/10/11 10:54:17;;;;;;;16.23;11.55;;;;;;;;;;4975610;29;20050;-85
2021/10/11 10:56:43;;;;;;;15.73;11.35;;;;;;;;;;4976742;29;20500;-85
2021/10/11 10:59:10;;;;;;;19.85;11.18;;;;;;;;;;4955686;29;20485;-85
2021/10/11 11:01:36;;;;;;;20.27;10.77;;;;;;;;;;4930545;29;20028;-85
2021/10/11 11:04:12;;;;;;;16.05;11.98;;;;;;;;;;4940544;29;20027;-85
2021/10/11 11:06:38;;;;;;;15.85;11.38;;;;;;;;;;4943869;29;20100;-86
2021/10/11 11:09:04;;;;;;;15.23;11.43;;;;;;;;;;4922937;29;20028;-85
2021/10/11 11:11:30;;;;;;;14.80;10.85;;;;;;;;;;4907142;29;20028;-86
2021/10/11 11:13:57;;;;;;;18.15;11.45;;;;;;;;;;4940321;29;20489;-86
2021/10/11 11:16:27;;;;;;;15.15;11.15;;;;;;;;;;4909302;29;20485;-86
2021/10/11 11:18:54;;;;;;;18.95;12.02;;;;;;;;;;4948108;29;20090;-86
2021/10/11 11:21:20;;;;;;;17.15;11.40;;;;;;;;;;4943093;29;20034;-86
2021/10/11 11:23:46;;;;;;;16.83;10.45;;;;;;;;;;4941640;29;20024;-85
2021/10/11 11:26:12;;;;;;;15.63;10.27;;;;;;;;;;4943437;29;20058;-86
2021/10/11 11:28:38;;;;;;;15.80;10.98;;;;;;;;;;4940540;29;20034;-86
2021/10/11 11:31:10;;;;;;;17.33;11.93;;;;;;;;;;4959770;29;20031;-85
2021/10/11 11:33:36;;;;;;;15.17;11.57;;;;;;;;;;4941106;29;20031;-85
2021/10/11 11:36:04;;;;;;;18.80;12.13;;;;;;;;;;4939946;29;20496;-85
2021/10/11 11:38:34;;;;;;;16.88;12.15;;;;;;;;;;4952145;29;20048;-85
2021/10/11 11:41:02;;;;;;;17.98;11.90;;;;;;;;;;4932619;29;20039;-85
2021/10/11 11:43:32;;;;;;;18.70;11.02;;;;;;;;;;4916903;29;20036;-84
2021/10/11 11:45:59;;;;;;;16.42;11.52;;;;;;;;;;4924159;29;20046;-84
2021/10/11 11:48:33;;;;;;;18.67;11.98;;;;;;;;;;4925165;29;20047;-84
2021/10/11 11:50:59;;;;;;;16.00;11.00;;;;;;;;;;4940717;29;20392;-84
2021/10/11 11:53:25;;;;;;;16.92;12.05;;;;;;;;;;4959168;29;20123;-84
2021/10/11 11:55:52;;;;;;;22.13;13.35;;;;;;;;;;4941266;29;20035;-84
2021/10/11 11:58:25;;;;;;;22.00;13.73;;;;;;;;;;4958771;29;20031;-84
2021/10/11 12:00:53;;;;;;;18.40;12.93;;;;;;;;;;4940923;29;20035;-85
2021/10/11 12:03:20;;;;;;;28.20;16.63;;;;;;;;;;4938819;29;20016;-84
2021/10/11 12:05:49;;;;;;;21.48;14.30;;;;;;;;;;4923971;29;20035;-84
2021/10/11 12:08:15;;;;;;;21.48;14.98;;;;;;;;;;4923418;29;20024;-83
2021/10/11 12:10:42;;;;;;;21.25;15.00;;;;;;;;;;4921510;29;20028;-85
2021/10/11 12:13:08;;;;;;;24.55;16.67;;;;;;;;;;4915405;29;20030;-84
2021/10/11 12:15:34;;;;;;;20.63;14.60;;;;;;;;;;4945667;29;20044;-84
2021/10/11 12:18:08;;;;;;;21.77;15.40;;;;;;;;;;4939015;29;20038;-84
2021/10/11 12:20:42;;;;;;;25.90;17.05;;;;;;;;;;4929872;29;20035;-84
2021/10/11 12:23:08;;;;;;;21.55;15.07;;;;;;;;;;4931161;29;20029;-84
2021/10/11 12:25:34;;;;;;;20.80;14.98;;;;;;;;;;4942518;29;20027;-84
2021/10/11 12:28:09;;;;;;;25.63;14.95;;;;;;;;;;4922859;29;20547;-84
2021/10/11 12:30:36;;;;;;;22.67;16.55;;;;;;;;;;4903719;29;20390;-84
2021/10/11 12:33:03;;;;;;;22.58;15.65;;;;;;;;;;4918666;29;20035;-84
2021/10/11 12:35:29;;;;;;;26.02;16.55;;;;;;;;;;4942097;29;20028;-84
2021/10/11 12:38:05;;;;;;;23.00;14.75;;;;;;;;;;4926485;29;20484;-84
2021/10/11 12:40:31;;;;;;;24.38;14.35;;;;;;;;;;4924307;29;20043;-84
2021/10/11 12:42:57;;;;;;;27.20;15.68;;;;;;;;;;4947604;29;20095;-84
2021/10/11 12:45:24;;;;;;;24.50;16.77;;;;;;;;;;4949533;29;20023;-84
2021/10/11 12:47:50;;;;;;;23.85;16.38;;;;;;;;;;4935011;29;20097;-84
2021/10/11 12:50:18;;;;;;;24.05;17.15;;;;;;;;;;4933399;29;20059;-84
2021/10/11 12:52:46;;;;;;;26.10;17.30;;;;;;;;;;4916395;29;20032;-84
2021/10/11 12:55:15;;;;;;;23.60;15.63;;;;;;;;;;4948152;29;20050;-83
2021/10/11 12:57:42;;;;;;;25.60;15.30;;;;;;;;;;4943808;29;20043;-83
2021/10/11 13:00:10;;;;;;;23.15;15.82;;;;;;;;;;4923384;29;20028;-85
2021/10/11 13:02:37;;;;;;;23.13;15.10;;;;;;;;;;4921958;29;20074;-85
2021/10/11 13:05:04;;;;;;;22.48;14.63;;;;;;;;;;4939909;29;20063;-84
2021/10/11 13:07:32;;;;;;;22.42;15.65;;;;;;;;;;4936790;29;20035;-85
2021/10/11 13:09:58;;;;;;;20.67;15.02;;;;;;;;;;4929855;29;20122;-85
2021/10/11 13:12:24;;;;;;;22.00;15.68;;;;;;;;;;4923628;29;20070;-85
2021/10/11 13:14:50;;;;;;;21.15;14.63;;;;;;;;;;4924207;29;20432;-85
2021/10/11 13:17:16;;;;;;;27.15;15.95;;;;;;;;;;4925493;29;20361;-84
2021/10/11 13:19:43;;;;;;;23.02;15.90;;;;;;;;;;4911880;29;20036;-84
2021/10/11 13:22:11;;;;;;;23.10;16.38;;;;;;;;;;4912402;29;20126;-84
2021/10/11 13:24:37;;;;;;;26.38;15.88;;;;;;;;;;4927829;29;20032;-85
2021/10/11 13:27:03;;;;;;;24.80;16.65;;;;;;;;;;4911769;29;20050;-85
2021/10/11 14:29:14;;;;;;;21.08;15.70;;;;;;;;;;4935557;29;20401;-84
2021/10/11 14:31:51;;;;;;;20.40;14.93;;;;;;;;;;4929529;29;20039;-84
2021/10/11 15:59:32;;;;;;;29.38;17.83;;;;;;;;;;4934001;29;20047;-84
2021/10/11 16:04:27;;;;;;;27.73;18.92;;;;;;;;;;4952321;29;20043;-85
2021/10/11 16:06:53;;;;;;;28.52;18.73;;;;;;;;;;4911690;29;20440;-84
2021/10/11 16:09:21;;;;;;;28.75;19.55;;;;;;;;;;4919615;29;20067;-84
2021/10/11 16:11:47;;;;;;;31.33;19.05;;;;;;;;;;4962964;29;20096;-84